Boise Air Terminal/Gowen field
KBOI : now visible

Airfield :











YOU CAN JOIN US ON...

 
LOGIN :

Register | Disclaimer

   EN    FR    IT 

 









Legend :    VFR   Marginal VFR   IFR   Intensive IFR   Very Intensive IFR
Visi :
Ceiling :
>= 8 km
>= 3000ft
5 to 8 km
1000 to 3000 ft
1500m to 5 km
500 to 1000 ft
800 to 1500m
200 to 500 ft
< 800m
< 200 ft
Symbols :   Thunderstorms  Fog  Heavy snow  Heavy precipitations  Wind > 20 kt






- Airport Elevation : 2871 ft
- IATA code : BOI


KBOI - Boise Air Terminal/Gowen field

CURRENT METAR :
  • 041453Z 36003KT 10SM -SN BKN048 OVC055 M02/M07 A2999 RMK AO2 SNB52 SLP177 P0000 60000 T10221067 56019

EXPIRED METARs :
  • 041353Z 03003KT 10SM OVC055 M02/M07 A3000 RMK AO2 SLP182 T10221072
  • 041253Z 33003KT 10SM OVC060 M02/M07 A3002 RMK AO2 SNE01 SLP189 P0000 T10221072

TAF KBOI
Valid from the 04 at 16:00 until the 05 at 12:00 UTC


041530Z 0416/0512 14006KT 4SM -SN BR OVC025
FM041800 14006KT 6SM -RA BR SCT012 OVC035
FM042200 15006KT P6SM VCSH OVC035
FM050200 13004KT P6SM OVC020
FM050600 VRB03KT 3SM BR OVC012
KZLC FIR / North America



MET'MAP, your aeronautical weather chart ! - Copyright ORBIFLY December 2007 - Disclaimer

ORBIFLY MET'MAP TEAM :

Programming & Development : Alexandra Zaïnal
Original concept : Baudouin d'Aumeries
Technical & hardware support : Manuel Goepfert
Assistance : Marc-Olivier Méhu




SOURCES & CREDITS :

   NOAA       Earth
Advisory